Time;durP1;ratioP1;P1;durP2;ratioP2;P2;SDS_P1;SDS_P2;PMS_P1;PMS_P2;Temp;Humidity;BMP_temperature;BMP_pressure;BME280_temperature;BME280_humidity;BME280_pressure;Samples;Min_cycle;Max_cycle;Signal;HPM_P1;HPM_P2
2022/03/28 00:00:16;;;;;;;90.20;38.92;;;6.60;99.90;;;;;;4996846;28;20057;-71
2022/03/28 00:02:44;;;;;;;86.45;37.30;;;6.60;99.90;;;;;;4996658;28;20065;-70
2022/03/28 00:05:10;;;;;;;89.85;40.15;;;6.80;99.90;;;;;;4997116;28;20046;-71
2022/03/28 00:07:36;;;;;;;94.07;41.83;;;6.70;99.90;;;;;;4979486;28;20347;-71
2022/03/28 00:10:02;;;;;;;99.70;40.53;;;6.70;99.90;;;;;;4996863;28;20057;-70
2022/03/28 00:12:28;;;;;;;102.35;41.92;;;6.70;99.90;;;;;;4996316;28;20045;-70
2022/03/28 00:14:53;;;;;;;92.93;39.78;;;6.70;99.90;;;;;;4996315;28;20080;-71
2022/03/28 00:17:19;;;;;;;92.75;37.65;;;6.70;99.90;;;;;;4995835;28;20416;-70
2022/03/28 00:19:44;;;;;;;104.47;40.60;;;6.70;99.90;;;;;;4996306;28;20489;-70
2022/03/28 00:22:10;;;;;;;97.53;39.17;;;6.70;99.90;;;;;;4996286;28;20046;-72
2022/03/28 00:24:35;;;;;;;127.15;40.88;;;6.70;99.90;;;;;;4996051;28;20104;-69
2022/03/28 00:27:01;;;;;;;97.63;40.13;;;6.60;99.90;;;;;;4995452;28;20043;-71
2022/03/28 00:29:26;;;;;;;90.88;41.22;;;6.60;99.90;;;;;;4996135;28;20042;-70
2022/03/28 00:31:52;;;;;;;116.45;43.28;;;6.60;99.90;;;;;;4996739;28;20050;-70
2022/03/28 00:34:21;;;;;;;143.07;42.70;;;6.60;99.90;;;;;;4996267;28;20054;-70
2022/03/28 00:36:52;;;;;;;97.90;40.80;;;6.60;99.90;;;;;;4996229;28;20360;-71
2022/03/28 00:39:22;;;;;;;101.70;43.35;;;6.60;99.90;;;;;;4996082;28;20038;-71
2022/03/28 00:41:51;;;;;;;103.05;42.72;;;6.60;99.90;;;;;;4995661;28;20125;-69
2022/03/28 00:44:17;;;;;;;87.28;40.53;;;6.60;99.90;;;;;;4996233;28;20495;-71
2022/03/28 00:46:43;;;;;;;84.30;38.28;;;6.60;99.90;;;;;;4995958;28;20143;-71
2022/03/28 00:49:09;;;;;;;78.63;37.40;;;6.60;99.90;;;;;;4995893;28;20038;-72
2022/03/28 00:51:36;;;;;;;92.57;40.67;;;6.60;99.90;;;;;;4995987;28;20053;-69
2022/03/28 00:54:02;;;;;;;78.63;40.33;;;6.60;99.90;;;;;;4995679;28;20125;-69
2022/03/28 00:56:29;;;;;;;71.32;37.30;;;6.50;99.90;;;;;;4960583;28;20076;-72
2022/03/28 00:58:55;;;;;;;62.97;35.33;;;6.50;99.90;;;;;;4976228;28;20054;-71
2022/03/28 01:01:20;;;;;;;65.88;34.50;;;6.60;99.90;;;;;;4959246;28;20363;-70
2022/03/28 01:03:46;;;;;;;63.47;32.72;;;6.50;99.90;;;;;;4976124;28;20046;-72
2022/03/28 01:06:12;;;;;;;54.28;30.60;;;6.60;99.90;;;;;;4959330;28;20055;-70
2022/03/28 01:08:38;;;;;;;49.97;29.70;;;6.50;99.90;;;;;;4976241;28;20046;-70
2022/03/28 01:11:09;;;;;;;46.90;26.92;;;7.10;99.90;;;;;;4976558;28;20129;-69
2022/03/28 01:13:38;;;;;;;41.17;25.58;;;6.60;99.90;;;;;;4975963;28;20050;-70
2022/03/28 01:16:05;;;;;;;43.55;25.23;;;6.50;99.90;;;;;;4976437;28;20050;-70
2022/03/28 01:18:31;;;;;;;46.50;25.73;;;6.50;99.90;;;;;;4976394;28;20097;-70
2022/03/28 01:20:58;;;;;;;43.50;24.75;;;6.50;99.90;;;;;;4976505;28;20328;-70
2022/03/28 01:23:24;;;;;;;44.40;26.17;;;6.50;99.90;;;;;;4976008;28;20086;-70
2022/03/28 01:25:51;;;;;;;50.67;25.63;;;6.50;99.90;;;;;;4988761;28;20046;-72
2022/03/28 01:28:18;;;;;;;42.80;23.88;;;6.50;99.90;;;;;;4998115;28;20082;-72
2022/03/28 01:30:43;;;;;;;40.70;23.88;;;6.40;99.90;;;;;;5000163;28;20100;-71
2022/03/28 01:33:09;;;;;;;46.75;24.92;;;6.50;99.90;;;;;;4999671;28;20125;-71
2022/03/28 01:35:36;;;;;;;45.42;24.05;;;6.50;99.90;;;;;;4998212;28;20058;-72
2022/03/28 01:38:05;;;;;;;44.10;24.52;;;6.50;99.90;;;;;;4999308;28;20120;-70
2022/03/28 01:40:32;;;;;;;37.85;23.05;;;6.50;99.90;;;;;;4999591;28;20532;-70
2022/03/28 01:42:58;;;;;;;37.75;22.65;;;6.50;99.90;;;;;;4982172;28;20050;-70
2022/03/28 01:45:24;;;;;;;43.10;22.90;;;6.50;99.90;;;;;;4999218;28;20046;-69
2022/03/28 01:47:50;;;;;;;39.03;23.52;;;6.50;99.90;;;;;;4981948;28;20466;-70
2022/03/28 01:50:17;;;;;;;36.20;22.17;;;6.50;99.90;;;;;;4999220;28;20437;-70
2022/03/28 01:52:43;;;;;;;34.15;21.67;;;6.50;99.90;;;;;;4999004;28;20093;-71
2022/03/28 01:55:09;;;;;;;34.70;21.45;;;6.40;99.90;;;;;;4998484;28;20046;-71
2022/03/28 01:57:37;;;;;;;28.63;19.13;;;6.40;99.90;;;;;;4998885;28;20045;-70
2022/03/28 02:00:07;;;;;;;24.67;16.08;;;6.40;99.90;;;;;;4999093;28;20042;-71
2022/03/28 02:02:33;;;;;;;23.63;16.63;;;6.40;99.90;;;;;;4981855;28;20038;-71
2022/03/28 02:04:59;;;;;;;21.70;15.98;;;6.30;99.90;;;;;;4998778;28;20113;-71
2022/03/28 02:07:25;;;;;;;19.70;14.80;;;6.30;99.90;;;;;;4981789;28;20046;-71
2022/03/28 02:09:50;;;;;;;23.95;17.98;;;6.40;99.90;;;;;;4999033;28;20336;-69
2022/03/28 02:12:16;;;;;;;27.48;19.05;;;6.30;99.90;;;;;;4998787;28;20086;-71
2022/03/28 02:14:42;;;;;;;31.92;20.73;;;6.30;99.90;;;;;;4981095;28;20363;-71
2022/03/28 02:17:07;;;;;;;30.77;20.50;;;6.20;99.90;;;;;;4997725;28;20133;-71
2022/03/28 02:19:33;;;;;;;30.27;20.08;;;6.20;99.90;;;;;;4998595;28;20125;-71
2022/03/28 02:21:59;;;;;;;32.75;21.33;;;6.20;99.90;;;;;;4981885;28;20348;-70
2022/03/28 02:24:24;;;;;;;36.03;23.38;;;6.20;99.90;;;;;;4998050;28;20038;-72
2022/03/28 02:26:50;;;;;;;30.60;22.00;;;6.20;99.90;;;;;;4998261;28;20035;-71
2022/03/28 02:29:16;;;;;;;40.03;22.80;;;6.10;99.90;;;;;;4998570;28;20054;-70
2022/03/28 02:31:41;;;;;;;31.73;20.65;;;6.10;99.90;;;;;;4998466;28;20473;-70
2022/03/28 02:34:07;;;;;;;34.83;22.48;;;6.10;99.90;;;;;;4998363;28;20058;-71
2022/03/28 02:36:32;;;;;;;29.77;20.67;;;6.20;99.90;;;;;;4998662;28;20136;-71
2022/03/28 02:38:58;;;;;;;32.13;21.50;;;6.10;99.90;;;;;;4980276;28;20050;-71
2022/03/28 02:41:24;;;;;;;34.22;22.90;;;6.10;99.90;;;;;;4998004;28;20058;-71
2022/03/28 02:43:49;;;;;;;40.95;22.42;;;6.20;99.90;;;;;;4996993;28;20050;-70
2022/03/28 02:46:15;;;;;;;35.50;22.52;;;6.20;99.90;;;;;;4997785;28;20057;-71
2022/03/28 02:48:41;;;;;;;40.55;22.58;;;6.20;99.90;;;;;;4997292;28;20105;-70
2022/03/28 02:51:06;;;;;;;38.25;23.40;;;6.20;99.90;;;;;;4997601;28;20442;-70
2022/03/28 02:53:32;;;;;;;44.15;25.77;;;6.20;99.90;;;;;;4980986;28;20039;-71
2022/03/28 02:55:59;;;;;;;40.30;24.50;;;6.20;99.90;;;;;;4996977;28;20060;-72
2022/03/28 02:58:25;;;;;;;41.70;26.67;;;6.30;99.90;;;;;;4997700;28;20105;-70
2022/03/28 03:00:50;;;;;;;39.08;24.13;;;6.20;99.90;;;;;;4998041;28;20046;-69
2022/03/28 03:03:16;;;;;;;43.20;28.95;;;6.30;99.90;;;;;;4980614;28;20081;-71
2022/03/28 03:05:43;;;;;;;42.80;27.27;;;6.20;99.90;;;;;;4997851;28;20042;-71
2022/03/28 03:08:09;;;;;;;45.33;28.38;;;6.20;99.90;;;;;;4997941;28;20042;-72
2022/03/28 03:10:34;;;;;;;46.63;27.73;;;6.30;99.90;;;;;;4997584;28;20343;-71
2022/03/28 03:13:00;;;;;;;48.58;30.55;;;6.30;99.90;;;;;;4997823;28;20138;-71
2022/03/28 03:15:26;;;;;;;42.72;26.95;;;6.20;99.90;;;;;;4997667;28;20402;-70
2022/03/28 03:17:52;;;;;;;41.22;26.90;;;6.30;99.90;;;;;;4997465;28;20125;-71
2022/03/28 03:20:18;;;;;;;34.20;23.58;;;6.20;99.90;;;;;;4980173;28;20050;-72
2022/03/28 03:22:43;;;;;;;39.75;24.80;;;6.20;99.90;;;;;;4997563;28;20200;-70
2022/03/28 03:25:09;;;;;;;38.50;22.67;;;6.20;99.90;;;;;;4980241;28;20046;-71
2022/03/28 03:27:38;;;;;;;34.40;21.73;;;6.20;99.90;;;;;;4997427;28;20120;-69
2022/03/28 03:30:10;;;;;;;36.63;23.02;;;6.10;99.90;;;;;;4997475;28;20112;-72
2022/03/28 03:32:37;;;;;;;37.50;22.65;;;6.10;99.90;;;;;;4997923;28;20125;-70
2022/03/28 03:35:03;;;;;;;36.88;23.42;;;6.10;99.90;;;;;;4997119;28;20129;-71
2022/03/28 03:37:29;;;;;;;30.77;20.40;;;6.10;99.90;;;;;;4996801;28;20462;-70
2022/03/28 03:39:54;;;;;;;32.58;19.83;;;6.10;99.90;;;;;;4997077;28;20046;-71
2022/03/28 03:42:20;;;;;;;32.70;19.73;;;6.10;99.90;;;;;;4997320;28;20057;-72
2022/03/28 03:44:46;;;;;;;29.52;19.80;;;6.00;99.90;;;;;;4979939;28;20049;-72
2022/03/28 03:47:11;;;;;;;32.00;19.63;;;6.00;99.90;;;;;;4997050;28;20093;-71
2022/03/28 03:49:37;;;;;;;30.02;18.75;;;6.10;99.90;;;;;;4996508;28;20050;-71
2022/03/28 03:52:03;;;;;;;36.58;21.02;;;6.10;99.90;;;;;;4997280;28;20134;-69
2022/03/28 03:54:30;;;;;;;32.65;20.10;;;6.10;99.90;;;;;;4996175;28;20048;-71
2022/03/28 03:56:55;;;;;;;32.30;19.63;;;6.10;99.90;;;;;;4995948;28;20054;-70
2022/03/28 03:59:21;;;;;;;33.55;18.85;;;6.10;99.90;;;;;;4996772;28;20046;-71
2022/03/28 04:01:46;;;;;;;31.05;18.98;;;6.10;99.90;;;;;;4996422;28;20141;-72
2022/03/28 04:04:12;;;;;;;36.88;20.25;;;6.10;99.90;;;;;;4996922;28;20050;-71
2022/03/28 04:06:39;;;;;;;30.13;20.02;;;6.10;99.90;;;;;;4996446;28;20082;-72
2022/03/28 04:09:05;;;;;;;34.72;18.08;;;6.10;99.90;;;;;;4996473;28;20125;-70
2022/03/28 04:11:30;;;;;;;33.03;19.17;;;6.30;99.90;;;;;;4996581;28;20088;-71
2022/03/28 04:13:57;;;;;;;31.65;17.95;;;6.10;99.90;;;;;;4996381;28;20042;-70
2022/03/28 04:16:23;;;;;;;30.40;18.10;;;6.10;99.90;;;;;;4996606;28;20062;-70
2022/03/28 04:18:48;;;;;;;29.65;16.85;;;6.00;99.90;;;;;;4996255;28;20042;-71
2022/03/28 04:21:14;;;;;;;30.08;16.63;;;6.00;99.90;;;;;;4996616;28;20320;-69
2022/03/28 04:23:40;;;;;;;31.63;17.90;;;6.10;99.90;;;;;;4996002;28;20422;-72
2022/03/28 04:26:12;;;;;;;31.20;16.40;;;5.90;99.90;;;;;;4983588;28;20046;-77
2022/03/28 04:28:42;;;;;;;24.48;14.07;;;5.90;99.90;;;;;;4946330;28;20051;-70
2022/03/28 04:31:07;;;;;;;37.50;14.00;;;5.90;99.90;;;;;;4976572;28;20043;-72
2022/03/28 04:33:33;;;;;;;29.85;14.00;;;5.80;99.90;;;;;;4993074;28;20038;-71
2022/03/28 04:35:59;;;;;;;27.38;13.45;;;5.80;99.90;;;;;;4996376;28;20335;-71
2022/03/28 04:38:25;;;;;;;25.42;12.98;;;5.70;99.90;;;;;;4996322;28;20437;-71
2022/03/28 04:40:51;;;;;;;25.02;12.70;;;5.90;99.90;;;;;;4996057;28;20107;-70
2022/03/28 04:43:17;;;;;;;22.35;11.35;;;5.70;99.90;;;;;;4996232;28;20052;-72
2022/03/28 04:45:42;;;;;;;21.15;11.35;;;5.60;99.90;;;;;;4978437;28;20426;-70
2022/03/28 04:48:08;;;;;;;27.55;14.20;;;5.60;99.90;;;;;;4996235;28;20178;-70
2022/03/28 04:50:34;;;;;;;29.35;15.13;;;5.60;99.90;;;;;;5015068;28;20366;-69
2022/03/28 04:53:00;;;;;;;27.30;14.57;;;5.60;99.90;;;;;;5015718;28;20489;-69
2022/03/28 04:55:26;;;;;;;29.48;15.73;;;5.60;99.90;;;;;;5013222;28;20128;-69
2022/03/28 04:57:51;;;;;;;29.40;15.05;;;5.60;99.90;;;;;;4996415;28;20064;-69
2022/03/28 05:00:17;;;;;;;22.00;11.93;;;5.60;99.90;;;;;;5015161;28;20350;-68
2022/03/28 05:02:43;;;;;;;19.65;10.73;;;5.60;99.90;;;;;;5013575;28;20125;-69
2022/03/28 05:05:09;;;;;;;15.02;8.13;;;5.60;99.90;;;;;;4995731;28;20125;-69
2022/03/28 05:07:36;;;;;;;12.77;6.65;;;5.60;99.90;;;;;;5014827;28;20050;-68
2022/03/28 05:10:03;;;;;;;11.57;5.82;;;5.60;99.90;;;;;;4998890;28;20061;-72
2022/03/28 05:12:29;;;;;;;10.93;5.40;;;5.60;99.90;;;;;;4994390;28;20078;-68
2022/03/28 05:14:55;;;;;;;8.93;4.82;;;5.50;99.90;;;;;;4978120;28;20078;-69
2022/03/28 05:17:22;;;;;;;8.52;4.40;;;5.70;99.90;;;;;;4978172;28;20050;-70
2022/03/28 05:19:49;;;;;;;6.78;3.95;;;5.50;99.90;;;;;;4995167;28;20125;-68
2022/03/28 05:22:14;;;;;;;8.70;4.60;;;5.50;99.90;;;;;;4995430;28;20467;-71
2022/03/28 05:24:40;;;;;;;8.07;4.28;;;5.50;99.90;;;;;;4995633;28;20038;-72
2022/03/28 05:27:06;;;;;;;10.90;5.03;;;5.50;99.90;;;;;;4978255;28;20043;-69
2022/03/28 05:29:31;;;;;;;10.27;5.07;;;5.50;99.90;;;;;;4987645;28;20119;-70
2022/03/28 05:31:57;;;;;;;10.63;5.10;;;5.50;99.90;;;;;;4998084;28;20399;-69
2022/03/28 05:34:22;;;;;;;10.52;5.50;;;5.70;99.90;;;;;;5014120;28;20097;-67
2022/03/28 05:36:48;;;;;;;9.93;5.28;;;5.40;99.90;;;;;;5018046;28;20050;-70
2022/03/28 05:39:14;;;;;;;12.07;5.95;;;5.50;99.90;;;;;;4988158;28;20105;-69
2022/03/28 05:41:40;;;;;;;11.50;5.88;;;5.50;99.90;;;;;;4995346;28;20058;-70
2022/03/28 05:44:06;;;;;;;16.25;6.90;;;5.40;99.90;;;;;;4995100;28;20034;-69
2022/03/28 05:46:31;;;;;;;13.85;6.50;;;5.50;99.90;;;;;;4995117;28;20409;-70
2022/03/28 05:48:57;;;;;;;16.38;6.53;;;5.50;99.90;;;;;;4992070;28;20057;-68
2022/03/28 05:51:23;;;;;;;16.77;7.45;;;5.50;99.90;;;;;;5014494;28;20060;-68
2022/03/28 05:53:49;;;;;;;15.55;7.15;;;5.50;99.90;;;;;;4989648;28;20078;-70
2022/03/28 05:56:15;;;;;;;21.35;9.05;;;5.50;99.90;;;;;;4970976;28;20074;-69
2022/03/28 05:58:40;;;;;;;25.95;10.80;;;5.50;99.90;;;;;;4987772;28;20035;-69
2022/03/28 06:01:06;;;;;;;54.67;17.58;;;5.60;99.90;;;;;;4996492;28;20038;-69
2022/03/28 06:03:32;;;;;;;69.50;19.13;;;5.50;99.90;;;;;;4980453;28;20065;-72
2022/03/28 06:05:59;;;;;;;46.47;18.05;;;5.50;99.90;;;;;;4994494;28;20567;-70
2022/03/28 06:08:24;;;;;;;55.42;20.60;;;5.50;99.90;;;;;;4994327;28;20061;-72
2022/03/28 06:10:50;;;;;;;50.38;19.63;;;5.50;99.90;;;;;;4977372;28;20389;-72
2022/03/28 06:13:17;;;;;;;61.58;22.45;;;5.50;99.90;;;;;;4995780;28;20435;-72
2022/03/28 06:15:43;;;;;;;62.63;22.98;;;5.50;99.90;;;;;;4981398;28;20073;-71
2022/03/28 06:18:09;;;;;;;63.85;25.38;;;5.50;99.90;;;;;;4997762;28;20050;-71
2022/03/28 06:20:35;;;;;;;57.05;25.33;;;5.60;99.90;;;;;;4997777;28;20042;-73
2022/03/28 06:23:02;;;;;;;60.90;25.95;;;5.60;99.90;;;;;;4998497;28;20050;-73
2022/03/28 06:25:28;;;;;;;60.47;27.70;;;5.60;99.90;;;;;;4981250;28;20061;-72
2022/03/28 06:27:54;;;;;;;68.78;31.40;;;5.60;99.90;;;;;;4980724;28;20046;-72
2022/03/28 06:30:20;;;;;;;65.53;30.35;;;5.60;99.90;;;;;;4981627;28;20073;-71
2022/03/28 06:32:45;;;;;;;67.95;28.83;;;5.70;99.90;;;;;;4981546;28;20042;-72
2022/03/28 06:35:11;;;;;;;62.95;30.08;;;5.70;99.90;;;;;;4997864;28;20462;-73
2022/03/28 06:37:38;;;;;;;66.57;30.38;;;5.70;99.90;;;;;;4980842;28;20081;-72
2022/03/28 06:40:04;;;;;;;60.92;28.08;;;5.80;99.90;;;;;;4996878;28;20034;-71
2022/03/28 06:42:32;;;;;;;47.05;23.90;;;5.80;99.90;;;;;;4997926;28;20117;-73
2022/03/28 06:45:00;;;;;;;42.75;23.55;;;5.90;99.90;;;;;;4980583;28;20079;-71
2022/03/28 06:47:26;;;;;;;39.65;22.33;;;5.80;99.90;;;;;;4996960;28;20405;-69
2022/03/28 06:49:52;;;;;;;35.55;20.27;;;5.80;99.90;;;;;;4980836;28;20151;-68
2022/03/28 06:52:17;;;;;;;25.90;16.80;;;5.80;99.90;;;;;;4996498;28;20056;-69
2022/03/28 06:54:43;;;;;;;26.30;16.88;;;5.80;99.90;;;;;;4997999;28;20151;-68
2022/03/28 06:57:09;;;;;;;22.23;14.98;;;5.80;99.90;;;;;;4996352;28;20443;-70
2022/03/28 06:59:35;;;;;;;21.98;14.10;;;5.90;99.90;;;;;;4991296;28;20061;-70
2022/03/28 07:02:00;;;;;;;21.67;14.65;;;5.90;99.90;;;;;;4996355;28;20042;-70
2022/03/28 07:04:26;;;;;;;19.75;12.57;;;5.90;99.90;;;;;;4996229;28;20042;-70
2022/03/28 07:06:52;;;;;;;19.08;13.02;;;6.00;99.90;;;;;;4996741;28;20053;-69
2022/03/28 07:09:18;;;;;;;18.15;13.15;;;6.00;99.90;;;;;;4996776;28;20050;-70
2022/03/28 07:11:44;;;;;;;18.10;12.25;;;6.00;99.90;;;;;;4996282;28;20459;-72
2022/03/28 07:14:09;;;;;;;19.52;12.45;;;6.00;99.90;;;;;;4979834;28;20046;-71
2022/03/28 07:16:35;;;;;;;17.83;13.00;;;6.00;99.90;;;;;;4995782;28;20065;-70
2022/03/28 07:19:01;;;;;;;21.33;12.48;;;6.10;99.90;;;;;;4996669;28;20108;-70
2022/03/28 07:21:27;;;;;;;18.63;12.95;;;6.10;99.90;;;;;;5000196;28;20042;-71
2022/03/28 07:23:53;;;;;;;17.33;12.63;;;6.20;99.90;;;;;;5016297;28;20046;-70
2022/03/28 07:26:20;;;;;;;14.93;11.60;;;6.20;99.90;;;;;;5015579;28;20172;-71
2022/03/28 07:28:46;;;;;;;16.45;11.40;;;6.20;99.90;;;;;;4999155;28;20421;-71
2022/03/28 07:31:12;;;;;;;13.55;10.20;;;6.20;99.90;;;;;;4998833;28;20125;-72
2022/03/28 07:33:38;;;;;;;14.82;10.57;;;6.20;99.90;;;;;;4998156;28;20378;-71
2022/03/28 07:36:04;;;;;;;16.02;10.63;;;6.20;99.90;;;;;;5015851;28;20156;-70
2022/03/28 07:38:30;;;;;;;18.63;12.05;;;6.20;99.90;;;;;;5006605;28;20039;-70
2022/03/28 07:40:56;;;;;;;39.80;22.05;;;6.30;99.90;;;;;;4995884;28;20050;-72
2022/03/28 07:43:22;;;;;;;33.83;17.92;;;6.40;99.90;;;;;;4996300;28;20054;-72
2022/03/28 07:45:48;;;;;;;29.17;19.50;;;6.40;99.90;;;;;;4996372;28;20042;-68
2022/03/28 07:48:14;;;;;;;27.30;12.23;;;6.40;99.90;;;;;;4996280;28;20058;-68
2022/03/28 07:50:40;;;;;;;20.75;14.50;;;6.40;99.90;;;;;;5001535;28;20470;-72
2022/03/28 07:53:06;;;;;;;20.00;13.15;;;6.50;99.90;;;;;;5015790;28;20042;-72
2022/03/28 07:55:32;;;;;;;19.67;13.95;;;6.50;99.90;;;;;;5015857;28;20191;-71
2022/03/28 07:58:01;;;;;;;21.52;13.70;;;6.50;99.90;;;;;;5011330;28;20108;-72
2022/03/28 08:00:29;;;;;;;23.38;14.57;;;6.50;99.90;;;;;;4995801;28;20399;-72
2022/03/28 08:02:56;;;;;;;26.40;15.82;;;6.50;99.90;;;;;;4995711;28;20100;-71
2022/03/28 08:05:21;;;;;;;23.05;14.00;;;6.60;99.90;;;;;;4959694;28;20125;-70
2022/03/28 08:07:51;;;;;;;23.05;15.02;;;6.60;99.90;;;;;;4979514;28;20046;-71
2022/03/28 08:10:17;;;;;;;23.98;14.77;;;6.70;99.90;;;;;;4995193;28;20109;-71
2022/03/28 08:12:43;;;;;;;23.83;15.07;;;6.70;99.90;;;;;;4995817;28;20057;-72
2022/03/28 08:15:11;;;;;;;22.63;14.38;;;6.70;99.90;;;;;;4996075;28;20038;-70
2022/03/28 08:17:38;;;;;;;23.25;14.57;;;6.80;99.90;;;;;;4978398;28;20129;-71
2022/03/28 08:20:09;;;;;;;21.42;13.50;;;6.80;99.90;;;;;;4996038;28;20050;-71
2022/03/28 08:22:39;;;;;;;20.15;13.68;;;6.80;99.90;;;;;;4996120;28;20112;-70
2022/03/28 08:25:06;;;;;;;22.48;14.35;;;6.90;99.90;;;;;;4996027;28;20054;-70
2022/03/28 08:27:31;;;;;;;25.70;14.32;;;6.90;99.90;;;;;;4995683;28;20088;-71
2022/03/28 08:29:57;;;;;;;18.25;12.90;;;7.00;99.90;;;;;;4994746;28;20046;-70
2022/03/28 08:32:23;;;;;;;22.05;12.60;;;7.10;99.90;;;;;;4995219;28;20046;-70
2022/03/28 08:34:49;;;;;;;17.23;11.00;;;7.00;99.90;;;;;;4996030;28;20340;-70
2022/03/28 08:37:16;;;;;;;15.35;10.63;;;6.90;99.90;;;;;;4994665;28;20054;-71
2022/03/28 08:39:43;;;;;;;13.63;9.60;;;7.00;99.90;;;;;;4995417;28;20046;-70
2022/03/28 08:42:14;;;;;;;15.38;9.68;;;6.90;99.90;;;;;;4995501;28;20406;-70
2022/03/28 08:44:41;;;;;;;14.15;9.80;;;7.00;99.90;;;;;;4978595;28;20069;-68
2022/03/28 08:47:08;;;;;;;13.23;9.45;;;7.00;99.90;;;;;;4995661;28;20418;-66
2022/03/28 08:49:35;;;;;;;11.70;8.18;;;7.10;99.90;;;;;;4979192;28;20050;-70
2022/03/28 08:52:02;;;;;;;11.20;8.70;;;7.10;99.90;;;;;;4995392;28;20470;-71
2022/03/28 08:54:27;;;;;;;14.20;8.45;;;7.10;99.90;;;;;;4995322;28;20077;-71
2022/03/28 08:56:53;;;;;;;14.18;9.60;;;7.20;99.90;;;;;;4995035;28;20080;-69
2022/03/28 08:59:18;;;;;;;12.90;9.50;;;7.20;99.90;;;;;;4995101;28;20057;-72
2022/03/28 09:01:45;;;;;;;14.60;9.85;;;7.20;99.90;;;;;;4995162;28;20061;-70
2022/03/28 09:04:12;;;;;;;15.38;10.60;;;7.30;99.90;;;;;;4995287;28;20109;-70
2022/03/28 09:06:38;;;;;;;16.83;11.05;;;7.40;99.90;;;;;;4995591;28;20054;-72
2022/03/28 09:09:22;;;;;;;14.35;10.52;;;7.50;99.90;;;;;;4978003;28;20054;-70
2022/03/28 09:11:51;;;;;;;14.88;11.40;;;7.50;99.90;;;;;;4978848;28;20112;-69
2022/03/28 09:14:35;;;;;;;15.38;10.07;;;7.60;99.90;;;;;;4976338;28;20137;-71
2022/03/28 09:17:13;;;;;;;14.57;10.90;;;7.50;99.90;;;;;;4987269;28;20080;-70
2022/03/28 09:19:48;;;;;;;15.32;11.00;;;7.50;99.90;;;;;;4987386;28;20046;-70
2022/03/28 09:22:31;;;;;;;17.20;12.00;;;7.40;99.90;;;;;;4971578;28;20054;-70
2022/03/28 09:25:00;;;;;;;15.87;11.23;;;7.30;99.90;;;;;;4958115;28;20054;-70
2022/03/28 09:27:29;;;;;;;15.90;11.80;;;7.40;99.90;;;;;;4958537;28;20062;-70
2022/03/28 09:30:10;;;;;;;16.10;12.00;;;7.60;99.90;;;;;;4976153;28;20386;-70
2022/03/28 09:32:38;;;;;;;15.88;11.60;;;7.60;99.90;;;;;;4958495;28;20138;-69
2022/03/28 09:35:20;;;;;;;16.35;12.45;;;7.70;99.90;;;;;;4974536;28;20086;-69
2022/03/28 09:37:51;;;;;;;20.60;12.18;;;7.80;99.90;;;;;;4962643;28;20050;-71
2022/03/28 09:40:39;;;;;;;17.42;12.73;;;8.00;99.90;;;;;;4978009;28;20089;-69
2022/03/28 09:43:23;;;;;;;18.30;11.68;;;8.00;99.90;;;;;;4984341;28;20068;-70
2022/03/28 09:45:51;;;;;;;18.67;13.30;;;8.10;99.90;;;;;;4985174;28;20045;-69
2022/03/28 09:48:22;;;;;;;17.60;12.55;;;8.20;99.90;;;;;;4989769;28;20482;-71
2022/03/28 09:50:49;;;;;;;17.33;11.50;;;8.20;99.90;;;;;;4992253;28;20053;-71
2022/03/28 09:53:18;;;;;;;15.25;11.85;;;8.30;99.90;;;;;;4974939;28;20069;-72
2022/03/28 09:56:01;;;;;;;18.15;12.95;;;8.30;99.90;;;;;;4978641;28;20038;-71
2022/03/28 09:58:48;;;;;;;17.42;12.77;;;8.40;99.90;;;;;;5013212;28;20377;-72
2022/03/28 10:01:19;;;;;;;21.15;12.52;;;8.30;99.90;;;;;;5015323;28;20054;-73
2022/03/28 10:03:49;;;;;;;17.45;12.85;;;8.30;99.90;;;;;;4989912;28;20038;-73
2022/03/28 10:06:15;;;;;;;17.33;12.52;;;8.20;99.90;;;;;;5013023;28;20169;-71
2022/03/28 10:08:41;;;;;;;17.95;12.38;;;8.30;99.90;;;;;;4988954;28;20469;-72
2022/03/28 10:11:08;;;;;;;19.63;13.27;;;8.40;99.90;;;;;;5012369;28;20061;-70
2022/03/28 10:13:34;;;;;;;16.45;12.57;;;8.50;99.90;;;;;;5017326;28;20038;-72
2022/03/28 10:16:01;;;;;;;16.58;12.35;;;8.50;99.90;;;;;;4997499;28;20042;-70
2022/03/28 10:18:32;;;;;;;17.75;13.60;;;8.50;99.90;;;;;;5017854;28;20046;-71
2022/03/28 10:21:01;;;;;;;19.75;13.27;;;8.50;99.90;;;;;;4996275;28;20072;-69
2022/03/28 10:23:34;;;;;;;17.17;12.52;;;8.50;99.90;;;;;;4980805;28;20073;-70
2022/03/28 10:26:03;;;;;;;20.98;13.23;;;8.50;99.90;;;;;;4997946;28;20046;-70
2022/03/28 10:28:28;;;;;;;18.17;13.00;;;8.60;99.90;;;;;;4979362;28;20046;-68
2022/03/28 10:31:16;;;;;;;17.05;12.55;;;8.60;99.90;;;;;;5014846;28;20054;-70
2022/03/28 10:33:50;;;;;;;18.35;13.13;;;8.70;99.90;;;;;;5000034;28;20046;-70
2022/03/28 10:36:35;;;;;;;16.70;13.20;;;8.70;99.90;;;;;;4980724;28;20451;-71
2022/03/28 10:39:34;;;;;;;20.48;13.35;;;8.80;99.90;;;;;;4980682;28;20100;-69
2022/03/28 10:42:17;;;;;;;18.52;13.77;;;8.90;99.90;;;;;;4973108;28;20093;-71
2022/03/28 10:45:00;;;;;;;16.70;12.10;;;9.10;99.90;;;;;;4997414;28;20042;-71
2022/03/28 10:47:43;;;;;;;20.13;12.25;;;9.30;99.90;;;;;;4997228;28;20050;-69
2022/03/28 10:50:12;;;;;;;15.33;11.83;;;9.10;99.90;;;;;;4997627;28;20058;-72
2022/03/28 10:52:37;;;;;;;17.42;11.95;;;9.10;99.90;;;;;;4999421;28;20364;-71
2022/03/28 10:55:10;;;;;;;16.67;12.25;;;9.20;99.90;;;;;;4984691;28;20477;-71
2022/03/28 10:57:37;;;;;;;20.60;13.02;;;9.40;99.90;;;;;;4990085;28;20073;-71
2022/03/28 11:00:09;;;;;;;17.52;12.77;;;9.70;99.90;;;;;;4995261;28;20038;-71
2022/03/28 11:02:35;;;;;;;16.55;11.82;;;9.70;99.90;;;;;;4996406;28;20046;-71
2022/03/28 11:05:12;;;;;;;18.30;12.63;;;9.60;99.90;;;;;;4986165;28;20125;-71
2022/03/28 11:07:38;;;;;;;17.45;12.25;;;9.70;99.90;;;;;;4996987;28;20474;-70
2022/03/28 11:10:08;;;;;;;16.17;12.68;;;9.90;99.90;;;;;;4980204;28;20152;-70
2022/03/28 11:12:37;;;;;;;18.15;12.45;;;10.10;99.90;;;;;;4996247;28;20042;-69
2022/03/28 11:15:15;;;;;;;17.05;12.63;;;10.30;99.90;;;;;;4996824;28;20126;-70
2022/03/28 11:17:57;;;;;;;15.68;11.77;;;10.20;99.90;;;;;;4979844;28;20039;-71
2022/03/28 11:20:27;;;;;;;15.60;12.23;;;10.30;99.90;;;;;;4996888;28;20050;-73
2022/03/28 11:23:07;;;;;;;16.00;11.98;;;10.40;99.90;;;;;;4996490;28;20479;-70
2022/03/28 11:25:46;;;;;;;16.55;11.70;;;10.50;99.90;;;;;;4996950;28;20069;-72
2022/03/28 11:28:25;;;;;;;15.43;11.77;;;10.60;99.90;;;;;;4996447;28;20058;-70
2022/03/28 11:30:59;;;;;;;16.63;12.45;;;10.60;99.90;;;;;;4996650;28;20050;-72
2022/03/28 11:33:38;;;;;;;15.43;12.13;;;10.70;99.90;;;;;;4979986;28;20069;-71
2022/03/28 11:36:09;;;;;;;15.75;11.75;;;10.80;99.90;;;;;;4996354;28;20073;-70
2022/03/28 11:38:46;;;;;;;16.80;12.23;;;10.70;99.90;;;;;;4996675;28;20074;-72
2022/03/28 11:41:13;;;;;;;15.95;11.98;;;10.80;99.90;;;;;;4996661;28;20352;-71
2022/03/28 11:43:42;;;;;;;17.60;13.05;;;10.80;99.90;;;;;;4996005;28;20133;-69
2022/03/28 11:46:19;;;;;;;18.17;13.00;;;10.90;99.90;;;;;;4979537;28;20461;-69
2022/03/28 11:48:56;;;;;;;14.65;11.98;;;10.90;99.90;;;;;;4979171;28;20085;-71
2022/03/28 11:51:26;;;;;;;17.65;13.15;;;10.80;99.90;;;;;;4996624;28;20374;-71
2022/03/28 11:53:52;;;;;;;19.23;12.80;;;10.70;99.90;;;;;;4979235;28;20050;-71
2022/03/28 11:56:27;;;;;;;17.83;12.95;;;10.90;99.90;;;;;;4996501;28;20124;-69
2022/03/28 11:59:02;;;;;;;18.45;12.52;;;10.90;99.90;;;;;;4979214;28;20064;-69
2022/03/28 12:01:30;;;;;;;15.13;11.93;;;11.10;99.90;;;;;;4995509;28;20043;-71
2022/03/28 12:03:56;;;;;;;18.35;12.13;;;11.40;99.90;;;;;;4996375;28;20082;-70
2022/03/28 12:06:31;;;;;;;13.98;11.70;;;11.50;99.90;;;;;;4963377;28;20493;-70
2022/03/28 12:08:57;;;;;;;18.75;12.60;;;11.50;99.90;;;;;;4996036;28;20046;-69
2022/03/28 12:11:24;;;;;;;15.43;12.70;;;11.60;99.90;;;;;;4963340;28;20068;-70
2022/03/28 12:13:50;;;;;;;18.77;13.27;;;11.60;99.90;;;;;;4995008;28;20042;-70
2022/03/28 12:16:15;;;;;;;15.38;11.98;;;11.60;99.90;;;;;;4993892;28;20057;-69
2022/03/28 12:18:41;;;;;;;15.85;12.85;;;11.50;99.90;;;;;;4995084;28;20051;-70
2022/03/28 12:21:08;;;;;;;16.95;13.50;;;11.80;99.90;;;;;;4995684;28;20046;-69
2022/03/28 12:23:36;;;;;;;16.10;12.85;;;11.70;99.90;;;;;;4959305;28;20489;-69
2022/03/28 12:26:03;;;;;;;13.93;11.57;;;11.80;99.90;;;;;;4976816;28;20046;-68
2022/03/28 12:28:35;;;;;;;17.38;13.35;;;11.80;99.90;;;;;;4968355;28;20382;-70
2022/03/28 12:31:03;;;;;;;15.05;11.82;;;12.00;99.90;;;;;;4979021;28;20046;-71
2022/03/28 12:33:34;;;;;;;15.85;12.48;;;12.10;99.90;;;;;;4995647;28;20050;-72
2022/03/28 12:36:05;;;;;;;17.63;13.80;;;12.10;99.90;;;;;;4995494;28;20050;-69
2022/03/28 12:38:36;;;;;;;18.52;13.88;;;11.90;99.90;;;;;;4979025;28;20046;-67